Aérodrome :
LOGIN :

S'inscrire | Disclaimer

   EN    FR    IT 

 










Légende :    VFR   VFR Marginal   IFR   IFR Intensif   IFR Très Intensif
Visi : 
Plafond : 
>= 8 km
>= 3000ft
5 à 8 km
1000 à 3000 ft
1500m à 5 km
500 à 1000 ft
800 à 1500m
200 à 500 ft
< 800m
< 200 ft
Symboles :   Orages  Brouillard  Fortes neiges  Fortes précipitations  Vent > 20 kt
SIGMETs :   Divers  Orages  Givrage  Turbulence  Onde Orograph.  Cendres Volcan.







- Altitude de l'aérodrome : 187 ft


ETNW - Wunstorf AB

DERNIER METAR :
  • 200720Z 27008KT 9000 FEW008 BKN015 BKN030 05/04 Q1016 WHT BLU TEMPO WHT

METARs EXPIRÉS :
  • 200627Z 26010KT 6000 -SHRA SCT010TCU BKN030 05/04 Q1016 WHT BLU TEMPO WHT
  • 200620Z 26010KT 9999 -SHRA SCT010TCU BKN030 05/04 Q1016 BLU BLU TEMPO WHT
  • 200520Z 26010KT 9999 FEW010 BKN035 05/04 Q1016 BLU BLU TEMPO WHT

TAF TAF ETNW
Valide du 20 à 06h jusqu'au 21 à 06h UTC


200500Z 2006/2106 26010KT 9999 NSW FEW010 BKN040
BECMG 2011/2014 25010G20KT 7000 -RA FEW008 BKN020
TEMPO 2013/2024 22010G20KT 4000 RADZ BKN007
PROB30 2014/2024 15005KT 2500 RADZ BKN005
TEMPO 2100/2106 VRB03KT 0500 FG VV001 BY ETGL
Pas de NOTAMs connus pour ce terrain.



MET'MAP, la Météo Aéronautique d'un coup d'oeil ! - Copyright ORBIFLY Décembre 2007 - Disclaimer

ORBIFLY MET'MAP TEAM :

Programmation & Développement : Alexandra Zaïnal
Conception & Développement : Baudouin d'Aumeries
Co-Programmation & Développement : Marc-Olivier Méhu
Soutien technique & logistique : Manuel Goepfert

Contact : metmap@orbifly.com




SOURCES & CREDITS :

   NOAA